Time;durP1;ratioP1;P1;durP2;ratioP2;P2;SDS_P1;SDS_P2;PMS_P1;PMS_P2;Temp;Humidity;BMP_temperature;BMP_pressure;BME280_temperature;BME280_humidity;BME280_pressure;Samples;Min_cycle;Max_cycle;Signal;HPM_P1;HPM_P2
2022/04/02 00:00:20;;;;;;;12.25;3.78;;;3.00;79.80;;;;;;5043239;28;20055;-76
2022/04/02 00:03:04;;;;;;;8.90;4.10;;;3.00;79.80;;;;;;5042803;28;20538;-77
2022/04/02 00:05:49;;;;;;;10.85;6.15;;;2.90;79.80;;;;;;5030935;28;20048;-76
2022/04/02 00:08:34;;;;;;;6.00;3.17;;;3.00;80.00;;;;;;5029524;28;20091;-77
2022/04/02 00:11:18;;;;;;;7.05;3.20;;;3.10;79.50;;;;;;5030424;28;20040;-78
2022/04/02 00:14:02;;;;;;;4.90;3.28;;;3.10;79.50;;;;;;5009268;28;20436;-77
2022/04/02 00:16:47;;;;;;;6.70;3.42;;;3.00;79.70;;;;;;5024527;28;20060;-77
2022/04/02 00:19:31;;;;;;;5.82;3.10;;;2.90;80.20;;;;;;5024444;28;20037;-76
2022/04/02 00:22:16;;;;;;;7.25;3.35;;;2.90;80.30;;;;;;5036244;28;20036;-76
2022/04/02 00:25:01;;;;;;;5.80;3.05;;;2.90;80.40;;;;;;5023073;28;20032;-76
2022/04/02 00:27:45;;;;;;;10.73;3.88;;;2.80;80.30;;;;;;4996362;28;20080;-77
2022/04/02 00:30:29;;;;;;;6.82;3.55;;;2.80;80.40;;;;;;5026088;28;20061;-78
2022/04/02 00:33:13;;;;;;;8.10;3.60;;;2.80;80.50;;;;;;5054372;28;20413;-76
2022/04/02 00:35:57;;;;;;;5.53;3.58;;;2.80;80.40;;;;;;5042797;28;20079;-75
2022/04/02 00:38:42;;;;;;;10.10;4.10;;;2.80;80.50;;;;;;5010434;28;20036;-76
2022/04/02 00:41:26;;;;;;;6.70;3.67;;;2.80;81.30;;;;;;5016565;28;20094;-77
2022/04/02 00:44:12;;;;;;;7.70;3.85;;;2.80;80.50;;;;;;5027022;28;20091;-77
2022/04/02 00:46:57;;;;;;;5.97;3.30;;;2.80;80.60;;;;;;5042308;28;20036;-75
2022/04/02 00:49:41;;;;;;;4.53;2.80;;;2.70;80.40;;;;;;5033163;28;20043;-77
2022/04/02 00:52:26;;;;;;;7.50;3.13;;;2.70;80.60;;;;;;5030215;28;20508;-77
2022/04/02 00:55:10;;;;;;;7.22;3.65;;;2.60;80.60;;;;;;5024887;28;20179;-76
2022/04/02 00:57:55;;;;;;;5.18;2.85;;;2.50;80.60;;;;;;4996386;28;20041;-76
2022/04/02 01:00:40;;;;;;;5.18;3.30;;;2.50;80.80;;;;;;5017438;28;20052;-77
2022/04/02 01:03:27;;;;;;;5.30;3.20;;;2.50;80.80;;;;;;5061219;28;20036;-77
2022/04/02 01:06:12;;;;;;;8.57;3.28;;;2.60;80.90;;;;;;5062162;28;20035;-77
2022/04/02 01:08:57;;;;;;;7.32;3.22;;;2.60;80.70;;;;;;5061009;28;20404;-77
2022/04/02 01:11:44;;;;;;;;;;;2.50;80.90;;;;;;5046354;28;20109;-77
2022/04/02 01:14:29;;;;;;;4.78;3.10;;;2.50;80.90;;;;;;5047878;28;19927;-76
2022/04/02 01:17:13;;;;;;;6.13;3.15;;;2.50;80.90;;;;;;5033451;28;20032;-77
2022/04/02 01:19:57;;;;;;;6.35;3.50;;;2.50;81.10;;;;;;5030147;28;20028;-76
2022/04/02 01:22:41;;;;;;;4.95;3.13;;;2.50;80.80;;;;;;5061613;28;20032;-75
2022/04/02 01:25:31;;;;;;;4.85;3.15;;;2.50;80.90;;;;;;5048122;28;20044;-76
2022/04/02 01:28:15;;;;;;;5.07;3.20;;;2.40;81.10;;;;;;5058519;28;20015;-76
2022/04/02 01:31:07;;;;;;;5.85;3.35;;;2.30;81.40;;;;;;5112136;27;20392;-57
2022/04/02 01:33:52;;;;;;;5.88;2.85;;;2.20;81.70;;;;;;5101803;28;20568;-56
2022/04/02 01:36:37;;;;;;;7.95;3.47;;;2.30;81.90;;;;;;5100648;28;20567;-60
2022/04/02 01:39:21;;;;;;;6.45;3.10;;;2.20;82.20;;;;;;5104962;28;20071;-59
2022/04/02 01:42:06;;;;;;;5.45;3.20;;;2.20;82.10;;;;;;5090306;28;20075;-58
2022/04/02 01:44:51;;;;;;;5.10;2.97;;;2.20;81.90;;;;;;5102436;28;20073;-59
2022/04/02 01:47:35;;;;;;;6.22;3.22;;;2.20;81.90;;;;;;5091601;28;20038;-58
2022/04/02 01:50:20;;;;;;;5.32;3.25;;;2.20;82.00;;;;;;5101166;28;20085;-57
2022/04/02 01:53:04;;;;;;;6.28;3.25;;;2.20;82.10;;;;;;5088456;28;20043;-55
2022/04/02 01:55:49;;;;;;;8.90;3.78;;;2.20;81.70;;;;;;5087233;28;20496;-54
2022/04/02 01:58:34;;;;;;;7.32;3.30;;;2.10;82.20;;;;;;5098519;28;20054;-56
2022/04/02 02:01:18;;;;;;;8.60;3.40;;;2.00;82.30;;;;;;5099794;28;20054;-57
2022/04/02 02:04:02;;;;;;;6.25;3.30;;;2.00;83.10;;;;;;5089417;28;20043;-57
2022/04/02 02:06:47;;;;;;;6.50;3.17;;;2.00;82.40;;;;;;5089426;28;20572;-58
2022/04/02 02:09:30;;;;;;;8.85;3.40;;;2.00;82.30;;;;;;5106485;28;20038;-57
2022/04/02 02:12:15;;;;;;;6.18;3.47;;;2.10;82.40;;;;;;5107825;28;20117;-55
2022/04/02 02:14:59;;;;;;;9.52;3.60;;;2.10;82.10;;;;;;5103868;28;20097;-58
2022/04/02 02:17:44;;;;;;;6.63;3.40;;;2.10;82.00;;;;;;5088753;28;20043;-56
2022/04/02 02:20:29;;;;;;;5.75;3.40;;;2.00;81.90;;;;;;5097167;28;20088;-59
2022/04/02 02:23:14;;;;;;;7.22;3.67;;;2.10;82.10;;;;;;5093422;28;20077;-57
2022/04/02 02:25:58;;;;;;;5.95;3.40;;;2.00;82.30;;;;;;5098558;28;20074;-58
2022/04/02 02:28:42;;;;;;;6.63;3.65;;;2.00;82.20;;;;;;5108006;28;20073;-55
2022/04/02 02:31:27;;;;;;;7.60;3.20;;;1.90;82.40;;;;;;5096743;28;20542;-59
2022/04/02 02:37:14;;;;;;;4.70;3.33;;;2.00;82.30;;;;;;5087733;28;20127;-53
2022/04/02 02:39:58;;;;;;;4.28;3.42;;;1.90;82.30;;;;;;5107455;28;20046;-53
2022/04/02 02:42:43;;;;;;;5.07;4.05;;;1.80;82.60;;;;;;5095012;28;20074;-57
2022/04/02 02:45:27;;;;;;;7.72;4.03;;;1.90;82.50;;;;;;5087792;28;20442;-56
2022/04/02 02:48:12;;;;;;;5.57;3.17;;;1.90;82.50;;;;;;5094392;28;20048;-55
2022/04/02 02:50:56;;;;;;;4.93;3.28;;;1.90;82.50;;;;;;5073785;28;20277;-57
2022/04/02 02:53:44;;;;;;;4.35;3.13;;;1.70;82.80;;;;;;5076609;28;20097;-57
2022/04/02 02:56:28;;;;;;;6.30;3.45;;;1.80;82.80;;;;;;5093680;28;20035;-56
2022/04/02 02:59:12;;;;;;;6.32;3.47;;;1.80;82.50;;;;;;5086032;28;20101;-59
2022/04/02 03:01:56;;;;;;;6.32;3.47;;;1.80;82.70;;;;;;5094420;28;20085;-57
2022/04/02 03:04:41;;;;;;;6.65;3.45;;;1.80;82.70;;;;;;5075735;28;20051;-57
2022/04/02 03:07:28;;;;;;;5.50;4.03;;;1.80;82.70;;;;;;5074098;28;20054;-56
2022/04/02 03:10:12;;;;;;;5.25;3.35;;;1.80;82.60;;;;;;5074105;28;20197;-57
2022/04/02 03:12:58;;;;;;;5.65;3.90;;;1.80;82.40;;;;;;5093382;28;20035;-58
2022/04/02 03:15:42;;;;;;;4.97;3.40;;;1.80;82.60;;;;;;5089156;28;20482;-57
2022/04/02 03:18:26;;;;;;;9.40;4.00;;;1.80;83.00;;;;;;5073677;28;20047;-59
2022/04/02 03:21:10;;;;;;;6.80;3.38;;;1.70;83.00;;;;;;5087117;28;20066;-57
2022/04/02 03:23:54;;;;;;;6.45;4.00;;;1.80;82.70;;;;;;5078531;28;20136;-58
2022/04/02 03:26:38;;;;;;;8.63;3.97;;;1.80;82.80;;;;;;5073341;28;20047;-58
2022/04/02 03:29:22;;;;;;;8.02;3.95;;;1.70;83.60;;;;;;5091090;28;20034;-56
2022/04/02 03:32:07;;;;;;;4.95;3.47;;;1.70;83.50;;;;;;5075167;28;20068;-56
2022/04/02 03:34:51;;;;;;;4.82;3.88;;;1.70;83.60;;;;;;5075621;28;20552;-56
2022/04/02 03:37:37;;;;;;;8.77;4.00;;;1.70;83.90;;;;;;5091460;28;20055;-59
2022/04/02 03:40:23;;;;;;;6.82;3.75;;;1.70;83.60;;;;;;5084878;28;20043;-57
2022/04/02 03:43:08;;;;;;;6.25;3.90;;;1.70;83.80;;;;;;5096672;28;20043;-57
2022/04/02 03:45:52;;;;;;;5.38;3.40;;;1.70;84.10;;;;;;5092369;28;20038;-55
2022/04/02 03:48:36;;;;;;;5.63;3.50;;;1.70;84.10;;;;;;5092694;28;20055;-58
2022/04/02 03:51:20;;;;;;;5.78;4.07;;;1.70;83.90;;;;;;5087047;28;20055;-58
2022/04/02 03:54:04;;;;;;;7.43;3.83;;;1.60;84.20;;;;;;5071841;28;20507;-57
2022/04/02 03:56:48;;;;;;;6.22;3.60;;;1.70;84.50;;;;;;5081601;28;20077;-57
2022/04/02 03:59:33;;;;;;;5.95;3.67;;;1.70;84.50;;;;;;5092351;28;20101;-59
2022/04/02 04:02:18;;;;;;;6.15;3.80;;;1.50;85.00;;;;;;5079355;28;20082;-54
2022/04/02 04:05:04;;;;;;;9.65;3.97;;;1.60;85.40;;;;;;5077777;28;20055;-58
2022/04/02 04:07:49;;;;;;;6.07;3.83;;;1.60;85.40;;;;;;5091329;28;20040;-58
2022/04/02 04:10:32;;;;;;;6.35;3.40;;;1.50;85.60;;;;;;5072192;28;20075;-58
2022/04/02 04:13:17;;;;;;;7.30;3.85;;;1.50;85.90;;;;;;5072249;28;20027;-59
2022/04/02 04:16:01;;;;;;;7.72;4.10;;;1.50;86.00;;;;;;5083372;28;20043;-58
2022/04/02 04:18:45;;;;;;;7.15;4.30;;;1.50;86.30;;;;;;5072097;28;20049;-58
2022/04/02 04:21:30;;;;;;;7.03;4.03;;;1.50;86.40;;;;;;5073322;28;20047;-58
2022/04/02 04:24:17;;;;;;;6.15;3.97;;;1.60;86.30;;;;;;5072509;28;20036;-58
2022/04/02 04:27:02;;;;;;;7.78;3.92;;;1.60;86.40;;;;;;5091318;28;20116;-57
2022/04/02 04:29:48;;;;;;;5.75;3.80;;;1.50;87.50;;;;;;5092089;28;20039;-57
2022/04/02 04:32:32;;;;;;;;;;;1.50;86.90;;;;;;5082323;28;20039;-56
2022/04/02 04:35:16;;;;;;;7.60;3.67;;;1.50;87.10;;;;;;5076396;28;19988;-57
2022/04/02 04:38:00;;;;;;;6.75;3.80;;;1.50;87.20;;;;;;5076715;28;20038;-57
2022/04/02 04:40:47;;;;;;;9.85;5.57;;;1.40;87.90;;;;;;5078412;28;20035;-57
2022/04/02 04:43:32;;;;;;;8.75;4.60;;;1.40;88.10;;;;;;5084012;28;20123;-59
2022/04/02 04:46:17;;;;;;;7.60;4.22;;;1.40;88.40;;;;;;5084320;28;20070;-58
2022/04/02 04:49:02;;;;;;;6.10;4.05;;;1.40;88.50;;;;;;5088998;28;20042;-55
2022/04/02 04:51:46;;;;;;;7.97;4.00;;;1.40;88.80;;;;;;5084794;28;20190;-56
2022/04/02 04:54:30;;;;;;;6.60;3.80;;;1.40;89.30;;;;;;5087689;28;20112;-56
2022/04/02 04:57:14;;;;;;;8.23;4.13;;;1.30;89.20;;;;;;5071339;28;20593;-56
2022/04/02 04:59:58;;;;;;;8.25;3.70;;;1.40;89.20;;;;;;5073112;28;20051;-57
2022/04/02 05:02:46;;;;;;;6.22;4.28;;;1.40;89.10;;;;;;5078474;28;20032;-59
2022/04/02 05:05:33;;;;;;;10.10;4.50;;;1.40;89.20;;;;;;5082826;28;20038;-58
2022/04/02 05:08:18;;;;;;;8.05;4.28;;;1.50;89.20;;;;;;5075437;28;20081;-53
2022/04/02 05:11:03;;;;;;;6.93;4.00;;;1.50;89.30;;;;;;5089734;28;20031;-58
2022/04/02 05:13:47;;;;;;;8.60;4.55;;;1.60;89.00;;;;;;5076882;28;20046;-59
2022/04/02 05:16:32;;;;;;;7.63;4.03;;;1.50;89.40;;;;;;5089074;28;20050;-57
2022/04/02 05:19:16;;;;;;;6.95;4.10;;;1.40;89.60;;;;;;5084934;28;20074;-58
2022/04/02 05:22:01;;;;;;;10.43;4.15;;;1.40;89.80;;;;;;5069867;28;20138;-56
2022/04/02 05:24:45;;;;;;;7.80;4.15;;;1.50;90.00;;;;;;5073734;28;20036;-55
2022/04/02 05:27:30;;;;;;;10.43;4.90;;;1.50;90.00;;;;;;5074848;28;20510;-59
2022/04/02 05:30:14;;;;;;;9.25;4.15;;;1.50;89.90;;;;;;5071253;28;20043;-56
2022/04/02 05:32:58;;;;;;;11.57;5.10;;;1.60;90.10;;;;;;5069989;28;20518;-52
2022/04/02 05:35:42;;;;;;;12.77;5.90;;;1.50;90.20;;;;;;5069760;28;20031;-54
2022/04/02 05:38:27;;;;;;;6.80;3.92;;;1.50;90.20;;;;;;5070973;28;20108;-57
2022/04/02 05:41:12;;;;;;;5.65;3.55;;;1.60;90.30;;;;;;5075875;28;20077;-56
2022/04/02 05:43:56;;;;;;;7.75;4.15;;;1.50;90.30;;;;;;5096161;28;20169;-58
2022/04/02 05:46:40;;;;;;;7.18;4.20;;;1.40;90.60;;;;;;5091134;28;20035;-59
2022/04/02 05:49:25;;;;;;;6.22;3.92;;;1.50;90.40;;;;;;5091384;28;20039;-56
2022/04/02 05:52:09;;;;;;;5.05;3.83;;;1.50;90.50;;;;;;5090954;28;20119;-57
2022/04/02 05:54:53;;;;;;;9.40;4.10;;;1.30;91.10;;;;;;5091444;28;20031;-59
2022/04/02 05:57:40;;;;;;;8.85;4.18;;;1.30;91.20;;;;;;5090064;28;20104;-58
2022/04/02 06:00:24;;;;;;;7.82;3.80;;;1.30;91.10;;;;;;5090843;28;20071;-57
2022/04/02 06:03:08;;;;;;;9.23;4.65;;;1.40;91.10;;;;;;5090781;28;20157;-57
2022/04/02 06:05:52;;;;;;;5.50;3.83;;;1.40;91.00;;;;;;5091033;28;20039;-59
2022/04/02 06:08:36;;;;;;;6.25;3.95;;;1.40;91.10;;;;;;5082712;28;20073;-57
2022/04/02 06:11:21;;;;;;;8.55;4.20;;;1.50;91.20;;;;;;5083163;28;20039;-59
2022/04/02 06:14:10;;;;;;;6.55;4.05;;;1.60;91.00;;;;;;5089937;28;20038;-58
2022/04/02 06:16:54;;;;;;;9.13;3.92;;;1.50;90.90;;;;;;5093299;28;20438;-57
2022/04/02 06:19:39;;;;;;;8.80;3.78;;;1.60;91.10;;;;;;5094818;28;20039;-58
2022/04/02 06:22:23;;;;;;;6.97;3.78;;;1.60;91.10;;;;;;5094496;28;20051;-58
2022/04/02 06:25:08;;;;;;;6.95;3.75;;;1.40;91.30;;;;;;5094539;28;20035;-61
2022/04/02 06:27:54;;;;;;;6.30;3.72;;;1.40;91.40;;;;;;5094532;28;20172;-55
2022/04/02 06:30:38;;;;;;;7.63;3.78;;;1.40;91.60;;;;;;5093065;28;20040;-58
2022/04/02 06:33:22;;;;;;;6.35;3.55;;;1.40;91.60;;;;;;5093914;28;20071;-59
2022/04/02 06:36:07;;;;;;;6.78;3.38;;;1.50;91.70;;;;;;5092934;28;20153;-56
2022/04/02 06:38:51;;;;;;;8.13;3.95;;;1.50;91.60;;;;;;5094293;28;20095;-58
2022/04/02 06:41:35;;;;;;;6.55;4.07;;;1.50;91.60;;;;;;5100091;28;20142;-59
2022/04/02 06:44:20;;;;;;;6.68;3.95;;;1.60;91.80;;;;;;5094967;28;20105;-57
2022/04/02 06:47:07;;;;;;;7.68;4.03;;;1.70;91.50;;;;;;5093399;28;20073;-60
2022/04/02 06:49:51;;;;;;;9.25;3.72;;;1.80;91.50;;;;;;5095419;28;20039;-56
2022/04/02 06:52:36;;;;;;;5.80;3.80;;;1.80;91.60;;;;;;5094372;28;20070;-59
2022/04/02 06:55:20;;;;;;;5.07;3.90;;;1.90;91.30;;;;;;5094412;28;20115;-59
2022/04/02 06:58:04;;;;;;;6.43;4.47;;;1.80;91.40;;;;;;5094084;28;20043;-58
2022/04/02 07:00:48;;;;;;;9.70;4.18;;;2.00;91.40;;;;;;5093510;28;20051;-58
2022/04/02 07:03:34;;;;;;;8.05;4.13;;;2.10;91.20;;;;;;5092472;28;20085;-56
2022/04/02 07:06:18;;;;;;;6.75;4.47;;;2.30;91.00;;;;;;5094011;28;20039;-56
2022/04/02 07:09:02;;;;;;;9.68;4.25;;;2.30;90.80;;;;;;5087111;28;20094;-57
2022/04/02 07:11:46;;;;;;;6.78;3.63;;;2.30;90.90;;;;;;5093931;28;20035;-57
2022/04/02 07:14:31;;;;;;;6.43;4.43;;;2.20;91.30;;;;;;5078198;28;20383;-58
2022/04/02 07:17:15;;;;;;;7.63;3.90;;;2.10;91.30;;;;;;5093226;28;20074;-59
2022/04/02 07:20:00;;;;;;;6.35;3.92;;;2.30;91.20;;;;;;5093908;28;20082;-58
2022/04/02 07:22:44;;;;;;;6.60;3.50;;;2.20;91.60;;;;;;5092775;28;20042;-58
2022/04/02 07:25:29;;;;;;;7.95;4.00;;;2.30;91.50;;;;;;5093890;28;20035;-56
2022/04/02 07:28:14;;;;;;;6.75;3.75;;;2.40;91.20;;;;;;5093772;28;20035;-56
2022/04/02 07:30:59;;;;;;;;;;;2.40;91.10;;;;;;5094019;28;20181;-57
2022/04/02 07:33:43;;;;;;;10.40;4.10;;;2.60;91.10;;;;;;5093813;28;20000;-59
2022/04/02 07:36:43;;;;;;;8.60;4.40;;;2.70;90.90;;;;;;5091951;28;20623;-58
2022/04/02 07:39:37;;;;;;;9.93;4.30;;;2.80;91.00;;;;;;5093188;28;20031;-57
2022/04/02 07:42:33;;;;;;;5.63;3.50;;;3.00;90.70;;;;;;5104249;28;20076;-59
2022/04/02 07:45:26;;;;;;;;;;;3.00;90.60;;;;;;5095208;28;20277;-58
2022/04/02 07:48:11;;;;;;;10.30;3.53;;;3.10;90.40;;;;;;5094839;28;19992;-61
2022/04/02 07:50:56;;;;;;;8.07;3.97;;;3.20;90.30;;;;;;5093735;28;20115;-62
2022/04/02 07:53:47;;;;;;;5.15;3.22;;;3.40;90.00;;;;;;5091989;28;20070;-61
2022/04/02 07:56:43;;;;;;;7.38;4.03;;;3.60;90.00;;;;;;5092851;28;20030;-58
2022/04/02 07:59:34;;;;;;;10.35;3.90;;;3.70;88.40;;;;;;5093434;28;20086;-57
2022/04/02 08:02:37;;;;;;;6.20;3.70;;;3.60;88.20;;;;;;5093711;28;20062;-63
2022/04/02 08:05:22;;;;;;;6.53;3.72;;;3.40;88.40;;;;;;5092100;28;20085;-59
2022/04/02 08:08:07;;;;;;;;;;;3.60;88.10;;;;;;5092727;28;20527;-57
2022/04/02 08:10:55;;;;;;;6.20;3.60;;;3.70;87.40;;;;;;5089748;28;20002;-57
2022/04/02 08:13:41;;;;;;;7.25;3.80;;;3.90;87.30;;;;;;5092540;28;20042;-61
2022/04/02 08:16:25;;;;;;;6.97;3.90;;;3.90;86.40;;;;;;5092672;28;20031;-59
2022/04/02 08:19:11;;;;;;;;;;;4.00;86.90;;;;;;5093653;28;20410;-58
2022/04/02 08:21:54;;;;;;;6.22;3.80;;;4.20;85.80;;;;;;5093312;28;19910;-58
2022/04/02 08:24:40;;;;;;;7.53;4.57;;;4.30;85.20;;;;;;5091995;28;20133;-56
2022/04/02 08:27:38;;;;;;;9.52;4.50;;;4.30;84.60;;;;;;5092358;28;20047;-56
2022/04/02 08:30:44;;;;;;;9.20;4.35;;;4.20;83.20;;;;;;5091920;28;20675;-59
2022/04/02 08:33:57;;;;;;;8.80;3.92;;;4.00;84.00;;;;;;5090773;28;20124;-58
2022/04/02 08:36:47;;;;;;;10.38;4.40;;;4.10;83.20;;;;;;5091248;28;20054;-58
2022/04/02 08:40:11;;;;;;;12.15;5.43;;;4.30;82.00;;;;;;5092056;28;20085;-59
2022/04/02 08:43:07;;;;;;;8.15;4.40;;;4.50;81.10;;;;;;5102704;28;20039;-58
2022/04/02 08:46:11;;;;;;;8.30;4.50;;;4.70;80.80;;;;;;5091675;28;20058;-56
2022/04/02 08:49:13;;;;;;;8.02;4.78;;;4.50;79.70;;;;;;5092309;28;20105;-59
2022/04/02 08:52:15;;;;;;;9.48;4.63;;;4.50;78.30;;;;;;5091773;28;20032;-60
2022/04/02 08:55:20;;;;;;;6.25;4.40;;;4.20;79.50;;;;;;5090657;28;20026;-58
2022/04/02 08:58:09;;;;;;;8.07;4.15;;;4.30;79.50;;;;;;5087595;28;20077;-58
2022/04/02 09:01:06;;;;;;;5.43;3.90;;;4.50;78.90;;;;;;5071850;28;20027;-57
2022/04/02 09:03:57;;;;;;;7.70;4.18;;;4.30;78.90;;;;;;5071201;28;20035;-59
2022/04/02 09:07:06;;;;;;;7.50;4.60;;;4.20;80.00;;;;;;5076935;28;20391;-59
2022/04/02 09:09:51;;;;;;;6.63;3.70;;;4.20;79.30;;;;;;5086335;28;20031;-60
2022/04/02 09:12:58;;;;;;;7.72;4.13;;;4.30;79.40;;;;;;5092270;28;20043;-57
2022/04/02 09:16:05;;;;;;;8.02;4.38;;;4.20;78.90;;;;;;5090934;28;20027;-60
2022/04/02 09:19:12;;;;;;;7.85;3.97;;;4.30;79.30;;;;;;5091321;28;20026;-57
2022/04/02 09:22:08;;;;;;;6.00;3.58;;;4.20;78.80;;;;;;5093834;28;20030;-59
2022/04/02 09:25:01;;;;;;;8.35;4.50;;;4.20;78.90;;;;;;5091848;28;20035;-54
2022/04/02 09:28:07;;;;;;;7.00;4.07;;;4.20;79.70;;;;;;5091667;28;20523;-58
2022/04/02 09:31:21;;;;;;;7.20;4.40;;;4.30;79.60;;;;;;5090202;28;20112;-55
2022/04/02 09:34:30;;;;;;;5.85;3.97;;;4.40;79.70;;;;;;5091693;28;20160;-58
2022/04/02 09:37:17;;;;;;;6.55;3.67;;;4.30;80.00;;;;;;5090488;28;20035;-61
2022/04/02 09:40:10;;;;;;;8.13;3.60;;;4.40;78.60;;;;;;5091623;28;20034;-61
2022/04/02 09:43:05;;;;;;;6.88;3.65;;;4.40;78.60;;;;;;5100797;28;20438;-58
2022/04/02 09:46:16;;;;;;;8.27;3.53;;;4.40;78.00;;;;;;5091150;28;20034;-60
2022/04/02 09:49:27;;;;;;;5.88;3.50;;;4.70;77.70;;;;;;5091411;28;20296;-59
2022/04/02 09:52:21;;;;;;;5.90;3.50;;;4.60;77.60;;;;;;5094092;28;20072;-57
2022/04/02 09:55:15;;;;;;;5.35;2.78;;;4.80;76.90;;;;;;5095650;28;20395;-56
2022/04/02 09:58:23;;;;;;;7.07;3.67;;;4.80;76.30;;;;;;5095470;28;20043;-56
2022/04/02 10:01:12;;;;;;;5.03;3.38;;;4.90;76.70;;;;;;5095313;28;20035;-60
2022/04/02 10:04:19;;;;;;;5.15;3.00;;;4.90;76.90;;;;;;5079869;28;20085;-55
2022/04/02 10:07:07;;;;;;;6.20;3.75;;;5.00;76.70;;;;;;5094821;28;20031;-61
2022/04/02 10:09:55;;;;;;;9.73;4.93;;;4.70;77.30;;;;;;5089219;28;20509;-58
2022/04/02 10:12:43;;;;;;;6.70;3.58;;;4.60;77.60;;;;;;5094337;28;20101;-60
2022/04/02 10:15:30;;;;;;;6.95;3.50;;;4.60;77.60;;;;;;5094641;28;20031;-56
2022/04/02 10:18:20;;;;;;;5.93;3.17;;;4.60;77.40;;;;;;5095075;28;20511;-61
2022/04/02 10:21:05;;;;;;;7.95;3.78;;;4.60;77.60;;;;;;5093795;28;20031;-58
2022/04/02 10:23:54;;;;;;;8.38;3.40;;;4.70;77.40;;;;;;5094322;28;20085;-59
2022/04/02 10:26:40;;;;;;;9.18;4.03;;;4.70;77.30;;;;;;5093289;28;20040;-58
2022/04/02 10:29:53;;;;;;;5.20;3.28;;;4.90;77.50;;;;;;5094520;28;20039;-58
2022/04/02 10:32:40;;;;;;;7.90;3.65;;;4.70;78.10;;;;;;5093360;28;20096;-61
2022/04/02 10:35:27;;;;;;;5.30;3.50;;;4.70;78.00;;;;;;5093801;28;20376;-59
2022/04/02 10:38:32;;;;;;;7.72;3.50;;;4.60;78.10;;;;;;5079308;28;20039;-59
2022/04/02 10:41:17;;;;;;;6.68;3.55;;;4.70;78.30;;;;;;5097396;28;20027;-58
2022/04/02 10:44:12;;;;;;;10.02;3.88;;;4.70;78.30;;;;;;5097314;28;20043;-60
2022/04/02 10:46:59;;;;;;;6.05;3.67;;;4.70;78.20;;;;;;5094263;28;20555;-61
2022/04/02 10:49:49;;;;;;;5.70;3.83;;;4.80;77.90;;;;;;5094339;28;20526;-59
2022/04/02 10:52:34;;;;;;;6.72;3.70;;;4.70;78.00;;;;;;5094021;28;20027;-58
2022/04/02 10:55:21;;;;;;;;;;;4.80;77.70;;;;;;5088771;28;20035;-62
2022/04/02 10:58:10;;;;;;;4.72;3.45;;;4.90;77.80;;;;;;5097663;28;19995;-57
2022/04/02 11:00:56;;;;;;;7.13;3.80;;;5.10;76.90;;;;;;5098041;28;20058;-62
2022/04/02 11:03:42;;;;;;;6.03;3.67;;;5.10;75.00;;;;;;5088063;28;20047;-61
2022/04/02 11:06:47;;;;;;;4.63;3.17;;;4.90;75.80;;;;;;5084594;28;20575;-61
2022/04/02 11:09:32;;;;;;;4.72;3.10;;;4.90;76.00;;;;;;5078279;28;20106;-60
2022/04/02 11:12:18;;;;;;;;;;;5.00;75.80;;;;;;5091039;28;20124;-60
2022/04/02 11:15:25;;;;;;;5.68;3.65;;;5.10;75.30;;;;;;5087991;28;19918;-61
2022/04/02 11:18:18;;;;;;;8.55;3.80;;;5.00;74.60;;;;;;5084993;28;20035;-59
2022/04/02 11:21:04;;;;;;;10.75;3.40;;;5.10;74.60;;;;;;5085729;28;20038;-59
2022/04/02 11:24:01;;;;;;;4.50;3.25;;;5.10;75.00;;;;;;5084914;28;20093;-60
2022/04/02 11:26:50;;;;;;;5.20;3.50;;;5.30;73.90;;;;;;5084998;28;20027;-59
2022/04/02 11:29:39;;;;;;;6.55;3.50;;;5.30;73.90;;;;;;5084267;28;20511;-59
2022/04/02 11:32:25;;;;;;;5.53;3.85;;;5.40;73.20;;;;;;5084429;28;20118;-61
2022/04/02 11:35:14;;;;;;;5.40;3.55;;;5.50;72.50;;;;;;5080337;28;20624;-61
2022/04/02 11:38:29;;;;;;;5.28;3.10;;;5.60;71.80;;;;;;5077920;28;20035;-60
2022/04/02 11:41:27;;;;;;;6.55;3.78;;;5.90;73.50;;;;;;5076616;28;20384;-60
2022/04/02 11:44:17;;;;;;;7.60;3.60;;;6.10;71.80;;;;;;5085027;28;20110;-60
2022/04/02 11:47:03;;;;;;;9.07;3.40;;;6.00;70.30;;;;;;5087266;28;20059;-63
2022/04/02 11:49:48;;;;;;;6.25;3.25;;;5.80;70.60;;;;;;5079755;28;20420;-63
2022/04/02 11:52:50;;;;;;;4.55;2.85;;;5.60;71.20;;;;;;5080926;28;20019;-59
2022/04/02 11:55:36;;;;;;;7.55;3.30;;;5.60;72.30;;;;;;5082324;28;20044;-60
2022/04/02 11:58:22;;;;;;;6.65;3.15;;;5.70;71.40;;;;;;5082692;28;20047;-59
2022/04/02 12:01:07;;;;;;;;;;;5.60;71.50;;;;;;5081663;28;20058;-60
2022/04/02 12:04:15;;;;;;;7.47;3.33;;;5.70;71.50;;;;;;5084188;28;19987;-59
2022/04/02 12:07:08;;;;;;;5.03;3.08;;;5.80;70.60;;;;;;5079922;28;20051;-61
2022/04/02 12:09:53;;;;;;;3.90;3.10;;;5.80;70.30;;;;;;5097289;28;20054;-55
2022/04/02 12:12:45;;;;;;;6.65;3.33;;;5.60;70.30;;;;;;5093059;28;20038;-60
2022/04/02 12:15:30;;;;;;;6.90;3.58;;;5.70;70.30;;;;;;5091511;28;20043;-60
2022/04/02 12:18:15;;;;;;;6.10;3.22;;;5.60;69.50;;;;;;5082295;28;20039;-58
2022/04/02 12:21:09;;;;;;;4.57;3.50;;;5.20;70.40;;;;;;5095137;28;20050;-59
2022/04/02 12:23:59;;;;;;;6.05;3.47;;;5.20;71.10;;;;;;5090240;28;20054;-58
2022/04/02 12:26:47;;;;;;;6.80;3.33;;;5.40;71.40;;;;;;5107544;28;20514;-61
2022/04/02 12:29:33;;;;;;;6.78;3.40;;;5.40;71.80;;;;;;5078141;28;20054;-67
2022/04/02 12:32:31;;;;;;;5.80;3.50;;;5.50;72.10;;;;;;5086409;28;20047;-58
2022/04/02 12:35:26;;;;;;;6.53;3.53;;;5.60;72.30;;;;;;5105996;28;20039;-57
2022/04/02 12:38:23;;;;;;;6.85;4.50;;;5.80;72.50;;;;;;5080755;28;20022;-55
2022/04/02 12:41:26;;;;;;;6.25;3.33;;;5.60;72.50;;;;;;5101075;28;20043;-58
2022/04/02 12:44:11;;;;;;;7.13;3.75;;;5.60;72.40;;;;;;5095994;28;20074;-59
2022/04/02 12:47:08;;;;;;;5.57;3.78;;;5.50;73.60;;;;;;5098574;28;20077;-57
2022/04/02 12:49:53;;;;;;;6.72;3.67;;;5.30;74.20;;;;;;5094675;28;20419;-60
2022/04/02 12:52:49;;;;;;;4.75;3.05;;;5.40;75.50;;;;;;5086859;28;20035;-55
2022/04/02 12:55:34;;;;;;;5.95;3.50;;;5.70;74.30;;;;;;5097252;28;20170;-53
2022/04/02 12:58:28;;;;;;;6.20;3.58;;;5.70;73.60;;;;;;5090785;28;20084;-51
2022/04/02 13:01:28;;;;;;;6.35;3.90;;;5.60;74.50;;;;;;5085065;28;20089;-54
2022/04/02 13:04:13;;;;;;;4.70;3.25;;;5.70;74.60;;;;;;5100248;28;20084;-54
2022/04/02 13:07:03;;;;;;;6.40;3.67;;;5.80;74.30;;;;;;5091769;28;20042;-55
2022/04/02 13:09:51;;;;;;;7.30;3.50;;;5.70;73.70;;;;;;5087306;28;20034;-51
2022/04/02 13:12:37;;;;;;;4.10;3.17;;;5.80;73.60;;;;;;5083794;28;20051;-51
2022/04/02 13:15:21;;;;;;;5.97;3.63;;;5.80;73.00;;;;;;5079821;28;20040;-50
2022/04/02 13:21:22;;;;;;;5.25;3.33;;;5.70;72.40;;;;;;5086895;28;20051;-52
2022/04/02 13:24:27;;;;;;;7.03;3.60;;;5.70;73.30;;;;;;5081019;28;20109;-53
2022/04/02 13:27:33;;;;;;;7.15;3.58;;;5.50;76.50;;;;;;5088111;28;20071;-52
2022/04/02 13:30:17;;;;;;;3.97;3.40;;;5.20;76.90;;;;;;5087236;28;20563;-51
2022/04/02 13:33:42;;;;;;;9.13;4.57;;;5.20;78.00;;;;;;5085087;28;20040;-51
2022/04/02 13:36:56;;;;;;;6.35;3.53;;;5.10;77.20;;;;;;5079947;28;20072;-52
2022/04/02 13:39:43;;;;;;;8.52;3.75;;;5.10;77.80;;;;;;5094135;28;20081;-61
2022/04/02 13:42:37;;;;;;;4.13;3.28;;;5.10;77.20;;;;;;5076675;28;20507;-48
2022/04/02 13:45:24;;;;;;;4.85;3.35;;;5.10;78.00;;;;;;5085736;28;20506;-53
2022/04/02 13:48:10;;;;;;;5.70;3.28;;;5.20;77.80;;;;;;5075302;28;20036;-52
2022/04/02 13:51:09;;;;;;;5.20;3.47;;;5.30;77.60;;;;;;5075005;28;20032;-53
2022/04/02 13:54:04;;;;;;;5.13;3.80;;;5.30;77.40;;;;;;5089853;28;20050;-49
2022/04/02 13:57:02;;;;;;;4.20;3.28;;;5.40;77.00;;;;;;5089421;28;20039;-53
2022/04/02 14:00:01;;;;;;;7.38;3.58;;;5.40;75.90;;;;;;5091215;28;20055;-54
2022/04/02 14:02:46;;;;;;;5.93;3.92;;;5.40;75.10;;;;;;5089278;28;20085;-53
2022/04/02 14:05:34;;;;;;;7.20;3.47;;;5.50;75.70;;;;;;5091097;28;20085;-51
2022/04/02 14:08:22;;;;;;;5.47;3.42;;;5.50;75.20;;;;;;5091163;28;20499;-50
2022/04/02 14:11:15;;;;;;;6.75;3.55;;;5.70;74.60;;;;;;5090855;28;20731;-52
2022/04/02 14:14:13;;;;;;;6.00;3.45;;;5.80;74.30;;;;;;5091127;28;20104;-54
2022/04/02 14:17:06;;;;;;;11.23;3.92;;;5.80;73.60;;;;;;5089451;28;20133;-49
2022/04/02 14:20:01;;;;;;;4.95;3.10;;;5.70;73.00;;;;;;5090628;28;20515;-49
2022/04/02 14:22:57;;;;;;;5.80;3.50;;;5.60;73.40;;;;;;5090294;28;20062;-49
2022/04/02 14:25:55;;;;;;;7.43;4.28;;;5.80;73.50;;;;;;5090886;28;20038;-51
2022/04/02 14:28:55;;;;;;;6.00;3.75;;;5.80;74.60;;;;;;5090311;28;20042;-53
2022/04/02 14:32:04;;;;;;;7.28;4.00;;;5.80;75.40;;;;;;5090607;28;20390;-49
2022/04/02 14:34:56;;;;;;;11.18;5.13;;;5.70;75.90;;;;;;5090836;28;20444;-52
2022/04/02 14:38:02;;;;;;;5.65;3.13;;;5.90;75.80;;;;;;5092518;28;20117;-53
2022/04/02 14:41:06;;;;;;;;;;;5.90;74.90;;;;;;5095071;28;20092;-47
2022/04/02 14:44:44;;;;;;;3.92;3.00;;;5.80;74.50;;;;;;5073864;28;19987;-54
2022/04/02 14:47:50;;;;;;;4.82;3.08;;;5.60;74.40;;;;;;4994717;28;20497;-50
2022/04/02 14:50:34;;;;;;;;;;;5.70;75.30;;;;;;5074272;28;20439;-52
2022/04/02 14:53:55;;;;;;;4.93;3.42;;;5.80;74.70;;;;;;5073578;28;19914;-51
2022/04/02 14:56:52;;;;;;;4.82;3.35;;;5.80;75.50;;;;;;5110976;28;20160;-48
2022/04/02 15:00:10;;;;;;;5.22;3.40;;;5.70;76.40;;;;;;5115207;28;20039;-53
2022/04/02 15:04:01;;;;;;;5.50;3.20;;;5.80;77.60;;;;;;5114888;28;20038;-49